Time;durP1;ratioP1;P1;durP2;ratioP2;P2;SDS_P1;SDS_P2;PMS_P1;PMS_P2;Temp;Humidity;BMP_temperature;BMP_pressure;BME280_temperature;BME280_humidity;BME280_pressure;Samples;Min_cycle;Max_cycle;Signal;HPM_P1;HPM_P2
2022/04/28 00:00:33;;;;;;;7.67;4.53;;;;;;;15.97;66.89;99485.75;5093965;28;20196;-55
2022/04/28 00:03:00;;;;;;;5.40;4.20;;;;;;;16.00;66.80;99496.09;5093721;28;20202;-55
2022/04/28 00:05:27;;;;;;;5.53;3.60;;;;;;;15.93;67.04;99498.72;5094020;28;20213;-56
2022/04/28 00:07:54;;;;;;;5.07;3.90;;;;;;;15.87;66.84;99497.91;5093643;28;20282;-55
2022/04/28 00:10:23;;;;;;;4.33;3.50;;;;;;;15.90;66.66;99496.13;5093577;28;20191;-59
2022/04/28 00:12:50;;;;;;;4.50;3.20;;;;;;;15.91;66.57;99495.28;5093652;28;20225;-55
2022/04/28 00:15:17;;;;;;;5.90;4.07;;;;;;;15.78;66.63;99492.75;5093688;28;20236;-55
2022/04/28 00:17:43;;;;;;;5.93;4.33;;;;;;;15.82;66.93;99492.72;5093565;28;20578;-55
2022/04/28 00:20:11;;;;;;;4.70;3.80;;;;;;;15.78;66.99;99491.03;5093617;28;20195;-55
2022/04/28 00:22:39;;;;;;;3.70;3.40;;;;;;;15.76;67.11;99491.91;5103620;28;20201;-55
2022/04/28 00:25:08;;;;;;;6.20;3.80;;;;;;;15.72;66.95;99496.25;5113832;28;20190;-55
2022/04/28 00:27:36;;;;;;;5.90;4.53;;;;;;;15.69;67.29;99493.66;5113636;28;20205;-55
2022/04/28 00:30:04;;;;;;;6.87;4.37;;;;;;;15.68;67.24;99493.69;5113829;28;20190;-55
2022/04/28 00:32:31;;;;;;;6.70;3.97;;;;;;;15.69;67.14;99492.78;5113660;28;20218;-55
2022/04/28 00:34:58;;;;;;;5.23;3.20;;;;;;;15.68;66.83;99493.69;5113622;28;20568;-55
2022/04/28 00:37:25;;;;;;;4.70;3.85;;;;;;;15.66;67.13;99492.81;5112997;28;20435;-55
2022/04/28 00:39:52;;;;;;;5.87;3.73;;;;;;;15.68;66.73;99489.38;5113346;28;20194;-55
2022/04/28 00:42:20;;;;;;;5.90;5.10;;;;;;;15.67;66.63;99497.13;5113486;28;20284;-55
2022/04/28 00:44:48;;;;;;;5.63;4.40;;;;;;;15.56;67.24;99494.59;5113570;28;20194;-55
2022/04/28 00:47:16;;;;;;;6.13;4.00;;;;;;;15.55;66.87;99495.44;5111627;28;20201;-55
2022/04/28 00:52:38;;;;;;;6.13;5.10;;;;;;;15.49;67.09;99490.31;5010823;28;20214;-55
2022/04/28 00:55:05;;;;;;;3.87;3.53;;;;;;;15.54;67.24;99495.47;5072881;28;20191;-55
2022/04/28 00:57:33;;;;;;;5.73;3.87;;;;;;;15.57;66.95;99493.72;5092110;28;20440;-55
2022/04/28 01:00:02;;;;;;;3.97;3.40;;;;;;;15.57;66.68;99493.72;5092714;28;20339;-55
2022/04/28 01:02:29;;;;;;;4.63;4.20;;;;;;;15.51;67.42;99498.06;5092706;28;20289;-55
2022/04/28 01:04:56;;;;;;;5.13;3.40;;;;;;;15.54;67.00;99485.09;5092412;28;20199;-56
2022/04/28 01:07:23;;;;;;;4.53;4.10;;;;;;;15.55;67.06;99484.22;5092599;28;20191;-55
2022/04/28 01:09:49;;;;;;;6.57;5.67;;;;;;;15.52;67.40;99487.69;5092816;28;20207;-55
2022/04/28 01:12:17;;;;;;;4.40;3.97;;;;;;;15.41;67.87;99473.88;5092415;28;20210;-55
2022/04/28 01:14:44;;;;;;;6.83;5.33;;;;;;;15.32;68.10;99466.16;5092352;28;20636;-56
2022/04/28 01:17:13;;;;;;;5.60;4.10;;;;;;;15.43;67.98;99474.75;5092271;28;20194;-55
2022/04/28 01:19:40;;;;;;;6.70;3.93;;;;;;;15.45;67.83;99483.38;5092364;28;20194;-55
2022/04/28 01:22:09;;;;;;;10.00;6.43;;;;;;;15.30;68.56;99473.03;5092416;28;20661;-56
2022/04/28 01:24:37;;;;;;;8.43;5.97;;;;;;;15.33;68.73;99481.66;5092026;28;20191;-56
2022/04/28 01:27:05;;;;;;;9.87;6.20;;;;;;;15.27;69.34;99486.03;5092257;28;20203;-56
2022/04/28 01:29:32;;;;;;;4.83;4.43;;;;;;;15.31;69.23;99485.13;5092337;28;20631;-56
2022/04/28 01:31:59;;;;;;;9.00;5.03;;;;;;;15.32;68.90;99477.38;5092042;28;20216;-56
2022/04/28 01:34:26;;;;;;;9.03;6.10;;;;;;;15.35;69.00;99482.53;5091929;28;20187;-56
2022/04/28 01:36:53;;;;;;;11.83;6.20;;;;;;;15.34;69.01;99487.72;5092209;28;20195;-56
2022/04/28 01:39:21;;;;;;;10.00;6.47;;;;;;;15.38;68.80;99478.22;5092040;28;20204;-56
2022/04/28 01:41:48;;;;;;;8.20;6.60;;;;;;;15.29;69.24;99482.56;5091868;28;20661;-56
2022/04/28 01:44:15;;;;;;;12.77;6.87;;;;;;;15.31;69.29;99490.31;5091843;28;20194;-56
2022/04/28 01:46:42;;;;;;;11.27;7.43;;;;;;;15.33;69.03;99489.44;5091821;28;20407;-56
2022/04/28 01:49:09;;;;;;;13.40;9.10;;;;;;;15.36;68.70;99498.91;5092103;28;20440;-56
2022/04/28 01:57:06;;;;;;;17.43;10.40;;;;;;;15.32;69.06;99492.91;5091630;28;20251;-55
2022/04/28 01:59:33;;;;;;;15.70;10.20;;;;;;;15.31;69.03;99492.91;5090675;28;20191;-56
2022/04/28 02:01:59;;;;;;;12.90;9.43;;;;;;;15.31;69.39;99498.06;5091386;28;20190;-55
2022/04/28 02:04:26;;;;;;;14.03;10.10;;;;;;;15.32;69.12;99492.03;5091550;28;20191;-55
2022/04/28 02:06:53;;;;;;;17.88;10.38;;;;;;;15.24;69.01;99491.22;5091576;28;20374;-56
2022/04/28 02:09:21;;;;;;;18.07;11.30;;;;;;;15.28;69.17;99491.19;5091583;28;20195;-56
2022/04/28 02:11:48;;;;;;;17.87;10.43;;;;;;;15.25;69.29;99495.50;5091392;28;20214;-56
2022/04/28 02:14:15;;;;;;;17.23;10.30;;;;;;;15.22;69.38;99501.53;5091672;28;20195;-55
2022/04/28 02:16:42;;;;;;;16.00;10.87;;;;;;;15.22;69.49;99500.69;5098727;28;20726;-56
2022/04/28 02:19:09;;;;;;;14.63;9.57;;;;;;;15.18;69.74;99501.56;5111654;28;20193;-56
2022/04/28 02:21:36;;;;;;;16.30;10.80;;;;;;;15.21;69.62;99501.56;5111371;28;20200;-56
2022/04/28 02:24:03;;;;;;;14.67;9.03;;;;;;;15.17;69.57;99499.84;5111476;28;20197;-56
2022/04/28 02:26:31;;;;;;;14.17;8.17;;;;;;;15.18;69.58;99496.41;5111306;28;20189;-56
2022/04/28 02:28:58;;;;;;;10.37;7.63;;;;;;;15.09;70.15;99489.50;5111299;28;20193;-56
2022/04/28 02:31:24;;;;;;;15.00;7.83;;;;;;;15.07;70.50;99487.78;5111263;28;20194;-56
2022/04/28 02:33:51;;;;;;;11.83;8.07;;;;;;;15.07;70.52;99495.56;5111425;28;20197;-56
2022/04/28 02:36:18;;;;;;;13.90;7.60;;;;;;;15.12;70.33;99496.41;5111148;28;20186;-56
2022/04/28 02:38:45;;;;;;;13.73;7.50;;;;;;;15.10;70.63;99491.25;5111063;28;20664;-56
2022/04/28 02:41:12;;;;;;;12.63;7.50;;;;;;;15.10;70.99;99493.84;5110998;28;20193;-56
2022/04/28 02:43:40;;;;;;;9.80;6.47;;;;;;;15.12;70.90;99496.41;5110969;28;20186;-56
2022/04/28 02:46:07;;;;;;;10.63;6.57;;;;;;;15.11;70.99;99492.06;5110997;28;20189;-56
2022/04/28 02:48:35;;;;;;;9.13;6.70;;;;;;;15.12;70.88;99491.22;5111213;28;20201;-56
2022/04/28 02:51:02;;;;;;;10.67;6.63;;;;;;;15.02;71.50;99499.88;5110904;28;20281;-56
2022/04/28 02:53:29;;;;;;;10.13;7.10;;;;;;;15.10;70.88;99500.72;5110820;28;20213;-56
2022/04/28 02:55:55;;;;;;;9.47;6.43;;;;;;;15.09;71.23;99501.56;5111230;28;20196;-56
2022/04/28 02:58:22;;;;;;;12.20;6.93;;;;;;;15.12;71.21;99499.00;5110719;28;20932;-56
2022/04/28 03:00:50;;;;;;;10.27;6.57;;;;;;;15.18;70.99;99501.56;5110921;28;20194;-56
2022/04/28 03:03:17;;;;;;;7.70;6.47;;;;;;;15.14;71.28;99502.44;5110969;28;20195;-56
2022/04/28 03:11:14;;;;;;;8.50;6.33;;;;;;;15.13;71.52;99513.66;5089455;28;20324;-56
2022/04/28 03:13:41;;;;;;;13.37;7.33;;;;;;;15.20;71.33;99513.63;5090278;28;20210;-56
2022/04/28 03:16:09;;;;;;;11.47;6.70;;;;;;;15.24;71.39;99515.34;5089614;28;20229;-56
2022/04/28 03:18:36;;;;;;;12.18;7.55;;;;;;;15.28;71.72;99518.78;5089392;28;20435;-59
2022/04/28 03:21:05;;;;;;;10.30;6.60;;;;;;;15.33;70.92;99519.63;5087274;28;20186;-60
2022/04/28 03:23:32;;;;;;;10.33;6.43;;;;;;;15.32;70.95;99523.13;5089741;28;20270;-60
2022/04/28 03:25:59;;;;;;;9.07;6.73;;;;;;;15.11;71.03;99489.50;5088061;28;20335;-59
2022/04/28 03:28:26;;;;;;;12.37;6.73;;;;;;;15.35;70.76;99528.28;5089697;28;20183;-59
2022/04/28 03:30:53;;;;;;;9.63;6.27;;;;;;;15.37;70.39;99526.53;5087387;28;20227;-56
2022/04/28 03:33:21;;;;;;;13.77;6.50;;;;;;;15.36;70.48;99535.16;5088976;28;20221;-56
2022/04/28 03:35:48;;;;;;;12.43;7.03;;;;;;;15.38;70.09;99548.13;5088878;28;20198;-56
2022/04/28 03:38:14;;;;;;;11.17;6.87;;;;;;;15.35;70.21;99554.19;5087369;28;20187;-56
2022/04/28 03:40:42;;;;;;;9.63;7.67;;;;;;;15.35;70.57;99559.34;5088591;28;20189;-56
2022/04/28 03:43:09;;;;;;;14.60;7.93;;;;;;;15.35;70.50;99565.38;5088513;28;20285;-56
2022/04/28 03:45:37;;;;;;;13.97;7.57;;;;;;;15.43;69.85;99561.91;5088226;28;20622;-56
2022/04/28 03:48:05;;;;;;;13.10;8.13;;;;;;;15.48;70.02;99575.75;5086665;28;20267;-60
2022/04/28 03:50:33;;;;;;;7.70;5.93;;;;;;;15.50;70.09;99569.69;5088857;28;20207;-59
2022/04/28 03:53:01;;;;;;;11.33;7.87;;;;;;;15.54;69.47;99576.59;5089468;28;20705;-59
2022/04/28 03:55:28;;;;;;;12.03;7.60;;;;;;;15.59;68.97;99579.16;5088559;28;20296;-59
2022/04/28 03:57:55;;;;;;;11.37;7.10;;;;;;;15.65;68.95;99582.63;5088861;28;20194;-60
2022/04/28 04:00:22;;;;;;;14.40;7.73;;;;;;;15.71;68.60;99589.50;5088871;28;20328;-59
2022/04/28 04:02:49;;;;;;;13.93;7.50;;;;;;;15.76;68.46;99590.34;5089470;28;20191;-58
2022/04/28 04:05:17;;;;;;;14.97;7.53;;;;;;;15.39;70.23;99537.75;5089180;28;20191;-58
2022/04/28 04:07:45;;;;;;;8.80;6.17;;;;;;;15.71;70.99;99600.72;5086472;28;20193;-59
2022/04/28 04:10:13;;;;;;;10.75;6.80;;;;;;;15.69;71.61;99602.44;5090336;28;20436;-59
2022/04/28 04:12:40;;;;;;;9.60;6.60;;;;;;;15.74;71.46;99607.66;5086644;28;20207;-59
2022/04/28 04:15:07;;;;;;;12.97;6.70;;;;;;;15.68;71.91;99607.66;5088221;28;20214;-59
2022/04/28 04:17:41;;;;;;;12.47;7.47;;;;;;;15.55;72.30;99611.97;5089061;28;20193;-59
2022/04/28 04:20:10;;;;;;;10.67;7.43;;;;;;;15.52;72.37;99614.56;5089084;28;20945;-59
2022/04/28 04:22:37;;;;;;;10.97;7.00;;;;;;;15.51;72.60;99617.19;5091210;28;20175;-60
2022/04/28 04:25:06;;;;;;;10.47;8.07;;;;;;;15.53;72.71;99613.72;5092548;28;20183;-60
2022/04/28 04:27:33;;;;;;;9.73;6.90;;;;;;;15.59;72.56;99618.88;5092440;28;20230;-60
2022/04/28 04:32:17;;;;;;;14.13;8.80;;;;;;;15.65;72.83;99625.78;5091410;28;20436;-60
2022/04/28 04:32:48;;;;;;;13.70;7.10;;;;;;;15.72;72.01;99627.47;5090793;28;20222;-58
2022/04/28 04:35:15;;;;;;;10.50;7.97;;;;;;;15.80;72.04;99636.97;5092329;28;20191;-59
2022/04/28 04:37:42;;;;;;;12.27;8.13;;;;;;;15.78;71.51;99633.53;5092569;28;20265;-59
2022/04/28 04:40:12;;;;;;;11.63;8.03;;;;;;;15.71;71.66;99634.38;5092172;28;20185;-59
2022/04/28 04:42:38;;;;;;;13.30;8.77;;;;;;;15.73;71.58;99629.22;5089427;28;20235;-59
2022/04/28 04:45:07;;;;;;;9.23;8.30;;;;;;;15.82;71.14;99635.22;5092018;28;20194;-59
2022/04/28 04:47:34;;;;;;;13.13;9.10;;;;;;;15.89;71.02;99636.09;5091077;28;20195;-59
2022/04/28 04:50:01;;;;;;;9.80;7.70;;;;;;;16.01;70.57;99645.56;5092350;28;20198;-59
2022/04/28 04:52:27;;;;;;;18.07;10.07;;;;;;;15.98;70.71;99635.19;5092444;28;20218;-58
2022/04/28 04:54:54;;;;;;;13.07;8.70;;;;;;;16.08;70.09;99642.94;5092103;28;20573;-59
2022/04/28 04:57:23;;;;;;;11.80;9.77;;;;;;;16.18;69.75;99643.78;5092231;28;20677;-60
2022/04/28 04:59:49;;;;;;;13.83;9.23;;;;;;;16.14;69.75;99644.63;5092334;28;20203;-59
2022/04/28 05:02:16;;;;;;;11.50;9.67;;;;;;;16.15;70.24;99648.97;5092374;28;20191;-60
2022/04/28 05:04:43;;;;;;;15.80;9.07;;;;;;;16.28;69.73;99645.44;5092466;28;20198;-59
2022/04/28 05:07:10;;;;;;;12.70;9.27;;;;;;;16.41;69.53;99647.13;5092283;28;20198;-59
2022/04/28 05:09:38;;;;;;;12.77;9.57;;;;;;;16.39;68.67;99628.97;5091870;28;20244;-59
2022/04/28 05:12:06;;;;;;;15.50;9.73;;;;;;;16.61;68.87;99647.91;5092079;28;20243;-59
2022/04/28 05:14:34;;;;;;;14.30;9.77;;;;;;;16.73;68.57;99653.00;5091402;28;20467;-58
2022/04/28 05:17:01;;;;;;;14.10;9.70;;;;;;;16.79;67.78;99649.53;5051167;28;20195;-60
2022/04/28 05:19:29;;;;;;;19.20;9.70;;;;;;;16.81;67.58;99658.19;5037611;28;20212;-60
2022/04/28 05:21:56;;;;;;;15.93;8.50;;;;;;;16.88;66.79;99650.34;5031398;28;20197;-60
2022/04/28 05:24:23;;;;;;;23.57;8.67;;;;;;;16.94;65.70;99652.91;5032043;28;20239;-60
2022/04/28 05:26:50;;;;;;;12.63;8.43;;;;;;;16.96;65.68;99651.16;5031827;28;20189;-60
2022/04/28 05:29:17;;;;;;;8.77;7.47;;;;;;;16.98;65.18;99653.72;5040203;28;20196;-60
2022/04/28 05:31:45;;;;;;;14.40;8.43;;;;;;;16.93;65.55;99653.75;5051268;28;20200;-61
2022/04/28 05:34:12;;;;;;;18.67;9.10;;;;;;;17.04;65.47;99656.28;5050669;28;20443;-61
2022/04/28 05:36:40;;;;;;;17.27;8.87;;;;;;;17.19;65.04;99648.38;5051536;28;20193;-61
2022/04/28 05:39:07;;;;;;;17.33;8.17;;;;;;;17.18;63.64;99656.16;5051480;28;20253;-60
2022/04/28 05:41:35;;;;;;;10.97;7.97;;;;;;;17.26;63.49;99667.34;5050140;28;20206;-62
2022/04/28 05:46:48;;;;;;;23.87;8.27;;;;;;;17.35;62.92;99678.53;5051332;28;20254;-60
2022/04/28 05:49:15;;;;;;;9.07;5.97;;;;;;;17.44;62.58;99675.84;5051208;28;20196;-60
2022/04/28 05:51:42;;;;;;;9.83;5.83;;;;;;;17.59;61.31;99680.09;5051353;28;20200;-60
2022/04/28 05:54:09;;;;;;;7.73;6.63;;;;;;;17.72;61.17;99676.50;5051133;28;20227;-60
2022/04/28 05:56:35;;;;;;;10.87;6.60;;;;;;;17.76;60.93;99683.41;5050791;28;20200;-60
2022/04/28 05:59:03;;;;;;;10.77;5.50;;;;;;;17.95;59.66;99684.06;5044795;28;20455;-60
2022/04/28 06:01:30;;;;;;;9.53;5.97;;;;;;;18.06;59.22;99687.41;5058487;28;20449;-60
2022/04/28 06:03:58;;;;;;;13.97;5.00;;;;;;;18.19;58.78;99687.25;5060336;28;20258;-60
2022/04/28 06:06:25;;;;;;;7.97;6.10;;;;;;;18.32;58.58;99684.53;5059381;28;20199;-60
2022/04/28 06:08:51;;;;;;;7.87;5.23;;;;;;;18.45;57.85;99679.16;5055946;28;20196;-61
2022/04/28 06:11:18;;;;;;;8.43;5.23;;;;;;;18.68;57.93;99681.47;5050378;28;20574;-60
2022/04/28 06:13:45;;;;;;;6.60;5.13;;;;;;;18.78;56.67;99678.75;5050500;28;20212;-61
2022/04/28 06:16:12;;;;;;;8.67;5.53;;;;;;;18.82;56.25;99684.75;5077536;28;20245;-57
2022/04/28 06:18:39;;;;;;;8.25;4.82;;;;;;;18.86;55.60;99678.63;5096074;28;20439;-56
2022/04/28 06:21:07;;;;;;;8.53;4.53;;;;;;;19.00;55.99;99668.88;5111034;28;20190;-57
2022/04/28 06:23:34;;;;;;;8.27;5.60;;;;;;;19.06;56.06;99676.63;5110913;28;20183;-57
2022/04/28 06:26:01;;;;;;;9.80;5.20;;;;;;;18.99;55.88;99676.69;5110466;28;20201;-57
2022/04/28 06:28:28;;;;;;;10.40;7.07;;;;;;;18.92;56.43;99677.69;5111016;28;20194;-57
2022/04/28 06:30:55;;;;;;;7.40;5.70;;;;;;;18.88;56.72;99684.66;5110558;28;20569;-57
2022/04/28 06:33:22;;;;;;;8.47;6.33;;;;;;;18.93;56.31;99687.19;5095133;28;20214;-56
2022/04/28 06:35:49;;;;;;;10.13;8.37;;;;;;;19.05;55.06;99679.22;5090118;28;20190;-56
2022/04/28 06:38:17;;;;;;;7.50;4.23;;;;;;;19.07;53.67;99678.31;5090393;28;20191;-57
2022/04/28 06:40:44;;;;;;;8.00;4.63;;;;;;;19.09;54.51;99678.31;5088469;28;20182;-57
2022/04/28 06:43:11;;;;;;;11.77;5.53;;;;;;;19.17;54.33;99684.25;5090203;28;20202;-56
2022/04/28 06:45:38;;;;;;;6.00;4.27;;;;;;;19.19;53.90;99677.28;5105347;28;20569;-57
2022/04/28 06:48:05;;;;;;;9.47;4.90;;;;;;;19.18;54.07;99680.75;5101736;28;20672;-56
2022/04/28 06:50:32;;;;;;;7.40;4.57;;;;;;;19.18;53.10;99673.81;5088370;28;20202;-59
2022/04/28 06:52:59;;;;;;;7.87;4.90;;;;;;;19.22;53.14;99678.09;5089906;28;20225;-59
2022/04/28 06:55:27;;;;;;;9.53;4.80;;;;;;;19.25;53.25;99674.56;5090258;28;20214;-60
2022/04/28 06:57:54;;;;;;;7.20;4.40;;;;;;;19.31;52.98;99684.91;5090056;28;20194;-60
2022/04/28 07:00:21;;;;;;;10.87;5.03;;;;;;;19.21;52.93;99673.75;5089978;28;20582;-59
2022/04/28 07:02:48;;;;;;;12.07;5.87;;;;;;;19.31;53.44;99675.31;5090138;28;20209;-60
2022/04/28 07:05:15;;;;;;;15.23;7.40;;;;;;;19.41;53.10;99676.94;5086404;28;20203;-60
2022/04/28 07:07:42;;;;;;;8.90;5.77;;;;;;;19.51;52.81;99675.03;5087172;28;20205;-60
2022/04/28 07:10:09;;;;;;;8.17;5.43;;;;;;;19.09;52.19;99655.69;5089618;28;20195;-60
2022/04/28 07:12:40;;;;;;;9.23;5.47;;;;;;;19.24;50.57;99668.50;5089786;28;20722;-60
2022/04/28 07:15:07;;;;;;;11.63;7.73;;;;;;;19.45;50.76;99672.53;5089578;28;20245;-59
2022/04/28 07:17:34;;;;;;;8.47;5.40;;;;;;;19.57;50.52;99671.47;5089764;28;20195;-59
2022/04/28 07:20:01;;;;;;;8.63;4.87;;;;;;;19.69;50.21;99668.66;5089414;28;20259;-60
2022/04/28 07:22:28;;;;;;;8.37;4.67;;;;;;;19.83;50.35;99672.69;5089703;28;20190;-60
2022/04/28 07:24:55;;;;;;;6.03;4.27;;;;;;;19.78;49.71;99669.31;5089523;28;20226;-60
2022/04/28 07:27:22;;;;;;;5.67;3.30;;;;;;;19.57;48.82;99672.31;5089242;28;20190;-60
2022/04/28 07:29:51;;;;;;;7.10;4.13;;;;;;;19.77;49.58;99667.63;5088764;28;20455;-60
2022/04/28 07:32:17;;;;;;;8.33;5.17;;;;;;;20.06;49.59;99669.66;5088203;28;20199;-59
2022/04/28 07:34:44;;;;;;;8.97;5.27;;;;;;;20.26;49.68;99670.19;5088645;28;21093;-60
2022/04/28 07:37:11;;;;;;;8.07;4.47;;;;;;;20.35;49.40;99664.78;5089839;28;20244;-60
2022/04/28 07:39:38;;;;;;;13.97;7.63;;;;;;;20.36;49.37;99679.53;5081286;28;20206;-60
2022/04/28 07:42:05;;;;;;;8.60;4.90;;;;;;;20.35;50.22;99664.78;5089131;28;20187;-60
2022/04/28 07:44:32;;;;;;;7.33;4.97;;;;;;;20.54;50.04;99667.88;5088933;28;20183;-60
2022/04/28 07:47:00;;;;;;;6.73;4.80;;;;;;;20.62;49.14;99660.72;5086899;28;20199;-60
2022/04/28 07:49:27;;;;;;;9.25;4.30;;;;;;;20.59;48.74;99664.28;5089006;28;20845;-60
2022/04/28 07:51:54;;;;;;;7.67;6.23;;;;;;;20.64;48.97;99666.78;5089627;28;20202;-60
2022/04/28 07:54:21;;;;;;;11.63;4.37;;;;;;;20.71;49.06;99672.72;5089628;28;20235;-60
2022/04/28 07:56:48;;;;;;;7.77;5.47;;;;;;;20.75;48.96;99661.31;5091450;28;20198;-60
2022/04/28 07:59:15;;;;;;;8.67;5.10;;;;;;;20.88;48.68;99662.75;5093377;28;20943;-60
2022/04/28 08:01:42;;;;;;;5.03;3.83;;;;;;;20.91;48.41;99665.28;5093338;28;20194;-60
2022/04/28 08:04:10;;;;;;;8.33;4.70;;;;;;;21.01;48.64;99664.19;5093509;28;20187;-60
2022/04/28 08:06:37;;;;;;;7.53;4.83;;;;;;;20.93;48.02;99659.13;5092984;28;20289;-60
2022/04/28 08:09:04;;;;;;;6.72;4.22;;;;;;;20.95;48.04;99664.34;5091742;28;20796;-60
2022/04/28 08:11:31;;;;;;;9.37;5.00;;;;;;;20.95;47.74;99667.81;5092779;28;20194;-59
2022/04/28 08:13:58;;;;;;;7.37;5.10;;;;;;;20.93;48.15;99661.75;5092936;28;20230;-59
2022/04/28 08:16:25;;;;;;;9.93;4.97;;;;;;;20.94;48.49;99655.63;5092592;28;20232;-60
2022/04/28 08:18:52;;;;;;;12.73;4.77;;;;;;;21.19;48.30;99653.34;5092190;28;20436;-60
2022/04/28 08:21:21;;;;;;;6.77;4.10;;;;;;;21.37;47.17;99652.88;5091760;28;20286;-60
2022/04/28 08:23:48;;;;;;;6.70;4.40;;;;;;;21.52;47.25;99664.72;5092392;28;20193;-58
2022/04/28 08:26:15;;;;;;;6.60;4.50;;;;;;;21.55;46.91;99657.66;5092667;28;20198;-59
2022/04/28 08:28:42;;;;;;;7.17;4.53;;;;;;;21.62;47.21;99656.59;5092374;28;20277;-60
2022/04/28 08:31:09;;;;;;;5.30;4.40;;;;;;;21.64;46.57;99656.56;5092025;28;20201;-60
2022/04/28 08:33:36;;;;;;;9.63;5.00;;;;;;;21.68;46.25;99652.94;5092066;28;20221;-60
2022/04/28 08:36:03;;;;;;;5.80;4.23;;;;;;;21.67;45.76;99652.09;5092433;28;20191;-60
2022/04/28 08:38:32;;;;;;;8.53;4.43;;;;;;;21.29;46.16;99652.19;5092054;28;20206;-60
2022/04/28 08:41:01;;;;;;;9.43;4.63;;;;;;;21.47;46.76;99646.53;5092287;28;20653;-58
2022/04/28 08:43:31;;;;;;;7.17;3.60;;;;;;;21.55;46.04;99647.19;5092071;28;20286;-60
2022/04/28 08:48:49;;;;;;;6.60;4.60;;;;;;;21.01;45.86;99648.53;5079788;28;20199;-60
2022/04/28 08:51:17;;;;;;;7.93;3.70;;;;;;;21.12;45.25;99651.78;5100190;28;20261;-59
